createdAt,value
2019-05-21T00:02:17.243Z,26.17
2019-05-21T00:04:49.012Z,25.33
2019-05-21T00:07:20.869Z,24.67
2019-05-21T00:09:53.008Z,28.00
2019-05-21T00:12:25.033Z,28.03
2019-05-21T00:14:56.824Z,28.37
2019-05-21T00:17:30.241Z,28.17
2019-05-21T00:20:02.038Z,30.47
2019-05-21T00:22:33.912Z,35.57
2019-05-21T00:25:06.553Z,31.77
2019-05-21T00:27:38.531Z,32.87
2019-05-21T00:31:04.262Z,32.17
2019-05-21T00:34:43.059Z,37.10
2019-05-21T00:37:57.276Z,45.40
2019-05-21T00:41:23.211Z,50.90
2019-05-21T00:43:59.553Z,53.50
2019-05-21T00:46:31.532Z,50.63
2019-05-21T00:49:03.317Z,53.13
2019-05-21T00:51:35.141Z,62.77
2019-05-21T00:54:06.853Z,58.07
2019-05-21T00:56:40.463Z,55.20
2019-05-21T00:59:12.450Z,51.20
2019-05-21T01:01:44.151Z,47.73
2019-05-21T01:04:16.018Z,46.30
2019-05-21T01:06:47.735Z,44.27
2019-05-21T01:09:19.528Z,45.20
2019-05-21T01:11:51.519Z,45.67
2019-05-21T01:14:23.210Z,39.80
2019-05-21T01:16:57.045Z,46.07
2019-05-21T01:19:28.838Z,46.40
2019-05-21T01:22:00.546Z,44.50
2019-05-21T01:24:32.219Z,44.00
2019-05-21T01:27:04.099Z,45.23
2019-05-21T01:29:36.178Z,37.47
2019-05-21T01:32:09.103Z,40.50
2019-05-21T01:34:41.755Z,39.80
2019-05-21T01:37:13.506Z,40.83
2019-05-21T01:39:45.232Z,33.63
2019-05-21T01:42:17.058Z,30.70
2019-05-21T01:44:48.992Z,35.57
2019-05-21T01:47:20.688Z,37.67
2019-05-21T01:49:53.797Z,35.90
2019-05-21T01:52:25.664Z,47.90
2019-05-21T01:54:57.634Z,37.07
2019-05-21T01:57:29.310Z,39.07
2019-05-21T02:00:01.003Z,31.77
2019-05-21T02:02:32.709Z,30.17
2019-05-21T02:05:06.834Z,30.13
2019-05-21T02:07:39.103Z,29.57
2019-05-21T02:10:11.181Z,29.50
2019-05-21T02:12:42.939Z,27.00
2019-05-21T02:15:15.143Z,33.17
2019-05-21T02:17:46.812Z,32.33
2019-05-21T02:20:18.859Z,37.47
2019-05-21T02:22:50.843Z,31.87
2019-05-21T02:25:23.678Z,37.43
2019-05-21T02:27:55.484Z,29.03
2019-05-21T02:30:27.326Z,33.73
2019-05-21T02:32:59.039Z,28.33
2019-05-21T02:35:30.974Z,25.73
2019-05-21T02:38:02.860Z,30.53
2019-05-21T02:40:35.035Z,30.10
2019-05-21T02:43:07.133Z,27.80
2019-05-21T02:45:39.433Z,25.93
2019-05-21T02:48:11.356Z,26.93
2019-05-21T02:50:43.228Z,30.73
2019-05-21T02:53:15.110Z,30.37
2019-05-21T02:55:46.835Z,29.73
2019-05-21T02:58:18.537Z,30.83
2019-05-21T03:01:07.972Z,32.17
2019-05-21T03:03:39.732Z,28.10
2019-05-21T03:06:14.503Z,29.10
2019-05-21T03:08:45.850Z,32.47
2019-05-21T03:11:17.822Z,26.73
2019-05-21T03:13:49.878Z,30.37
2019-05-21T03:16:23.010Z,31.13
2019-05-21T03:18:54.930Z,30.10
2019-05-21T03:21:27.145Z,28.93
2019-05-21T03:23:59.014Z,29.43
2019-05-21T03:26:30.961Z,29.43
2019-05-21T03:29:03.750Z,33.93
2019-05-21T03:31:35.994Z,32.37
2019-05-21T03:34:08.250Z,45.40
2019-05-21T03:36:40.307Z,36.83
2019-05-21T03:39:12.232Z,42.57
2019-05-21T03:41:43.930Z,39.73
2019-05-21T03:44:15.746Z,41.33
2019-05-21T03:46:47.541Z,50.07
2019-05-21T03:49:19.334Z,49.90
2019-05-21T03:51:51.217Z,48.47
2019-05-21T03:54:23.289Z,51.63
2019-05-21T03:56:55.240Z,50.90
2019-05-21T03:59:27.187Z,59.57
2019-05-21T04:01:59.074Z,55.00
2019-05-21T04:04:31.181Z,71.40
2019-05-21T04:07:02.940Z,54.67
2019-05-21T04:09:35.043Z,62.67
2019-05-21T04:12:06.827Z,56.90
2019-05-21T04:14:45.797Z,65.23
2019-05-21T04:17:36.615Z,52.57
2019-05-21T04:22:52.970Z,70.13
2019-05-21T04:25:26.195Z,55.83
2019-05-21T04:27:58.029Z,62.10
2019-05-21T04:30:30.030Z,61.67
2019-05-21T04:33:01.999Z,63.50
2019-05-21T04:35:33.914Z,67.83
2019-05-21T04:38:06.773Z,60.77
2019-05-21T04:40:38.578Z,59.87
2019-05-21T04:43:10.447Z,65.87
2019-05-21T04:45:42.249Z,61.57
2019-05-21T04:48:14.270Z,68.67
2019-05-21T04:50:45.932Z,54.70
2019-05-21T04:53:17.604Z,55.50
2019-05-21T04:55:49.401Z,58.07
2019-05-21T04:58:21.050Z,63.20
2019-05-21T05:00:52.973Z,71.93
2019-05-21T05:03:24.636Z,69.63
2019-05-21T05:05:56.442Z,66.10
2019-05-21T05:08:28.101Z,64.97
2019-05-21T05:10:59.785Z,63.80
2019-05-21T05:13:32.976Z,60.97
2019-05-21T05:16:04.727Z,58.37
2019-05-21T05:18:37.544Z,64.30
2019-05-21T05:21:09.453Z,58.63
2019-05-21T05:23:41.458Z,63.47
2019-05-21T05:26:13.308Z,63.13
2019-05-21T05:28:44.941Z,56.50
2019-05-21T05:31:16.845Z,54.43
2019-05-21T05:33:48.736Z,51.70
2019-05-21T05:36:20.402Z,48.50
2019-05-21T05:38:52.544Z,50.47
2019-05-21T05:41:24.240Z,48.40
2019-05-21T05:43:55.933Z,55.60
2019-05-21T05:46:27.833Z,51.03
2019-05-21T05:49:05.846Z,51.13
2019-05-21T05:51:37.554Z,58.50
2019-05-21T05:54:09.332Z,46.03
2019-05-21T05:56:41.196Z,46.80
2019-05-21T05:59:14.467Z,50.37
2019-05-21T06:01:46.485Z,42.87
2019-05-21T06:04:18.210Z,50.93
2019-05-21T06:06:50.013Z,52.07
2019-05-21T06:09:22.002Z,46.53
2019-05-21T06:11:54.780Z,48.10
2019-05-21T06:14:26.477Z,53.27
2019-05-21T06:16:58.165Z,52.30
2019-05-21T06:19:29.890Z,47.70
2019-05-21T06:22:01.698Z,41.70
2019-05-21T06:24:33.898Z,44.53
2019-05-21T06:27:05.901Z,36.70
2019-05-21T06:29:39.554Z,44.30
2019-05-21T06:32:10.766Z,40.83
2019-05-21T06:34:42.481Z,45.83
2019-05-21T06:37:13.979Z,48.33
2019-05-21T06:39:45.623Z,44.43
2019-05-21T06:42:17.128Z,52.13
2019-05-21T06:44:48.639Z,44.50
2019-05-21T06:47:20.205Z,44.40
2019-05-21T06:49:51.684Z,42.50
2019-05-21T06:52:23.316Z,40.20
2019-05-21T06:54:54.840Z,41.23
2019-05-21T06:57:26.381Z,47.03
2019-05-21T06:59:58.132Z,42.93
2019-05-21T07:02:29.641Z,38.87
2019-05-21T07:05:01.193Z,41.57
2019-05-21T07:07:34.555Z,43.23
2019-05-21T07:10:07.220Z,38.30
2019-05-21T07:12:38.761Z,40.13
2019-05-21T07:15:10.689Z,37.30
2019-05-21T07:17:43.232Z,40.93
2019-05-21T07:20:15.517Z,29.03
2019-05-21T07:22:47.688Z,30.47
2019-05-21T07:25:19.550Z,29.60
2019-05-21T07:27:51.064Z,24.23
2019-05-21T07:30:22.741Z,30.80
2019-05-21T07:32:54.615Z,26.83
2019-05-21T07:35:26.460Z,28.27
2019-05-21T07:37:58.332Z,33.23
2019-05-21T07:40:29.840Z,31.10
2019-05-21T07:43:01.593Z,26.80
2019-05-21T07:45:33.044Z,22.33
2019-05-21T07:48:04.940Z,28.60
2019-05-21T07:50:36.417Z,23.37
2019-05-21T07:53:09.053Z,26.13
2019-05-21T07:55:40.548Z,16.77
2019-05-21T07:58:12.278Z,25.37
2019-05-21T08:00:43.774Z,24.93
2019-05-21T08:03:15.303Z,24.73
2019-05-21T08:05:46.979Z,26.37
2019-05-21T08:08:18.631Z,25.17
2019-05-21T08:10:52.169Z,24.40
2019-05-21T08:13:23.716Z,26.37
2019-05-21T08:15:55.482Z,25.33
2019-05-21T08:18:28.835Z,21.40
2019-05-21T08:21:00.377Z,25.50
2019-05-21T08:23:32.225Z,20.57
2019-05-21T08:26:03.791Z,23.13
2019-05-21T08:28:35.398Z,23.67
2019-05-21T08:31:07.447Z,27.37
2019-05-21T08:33:38.945Z,22.43
2019-05-21T08:36:10.772Z,24.80
2019-05-21T08:38:43.618Z,19.87
2019-05-21T08:41:15.129Z,18.87
2019-05-21T08:43:46.623Z,16.27
2019-05-21T08:46:18.082Z,18.90
2019-05-21T08:48:50.501Z,15.60
2019-05-21T08:51:21.988Z,19.70
2019-05-21T08:53:54.749Z,18.00
2019-05-21T08:56:26.418Z,17.07
2019-05-21T08:58:58.168Z,18.20
2019-05-21T09:01:29.928Z,17.10
2019-05-21T09:04:01.581Z,18.90
2019-05-21T09:06:33.115Z,17.67
2019-05-21T09:09:05.968Z,18.97
2019-05-21T09:11:37.486Z,17.90
2019-05-21T09:14:09.059Z,19.23
2019-05-21T09:16:40.760Z,17.17
2019-05-21T09:19:12.456Z,18.03
2019-05-21T09:21:44.074Z,21.13
2019-05-21T09:24:15.758Z,19.23
2019-05-21T09:26:47.252Z,13.57
2019-05-21T09:29:19.242Z,15.87
2019-05-21T09:31:50.752Z,16.20
2019-05-21T09:34:22.165Z,15.63
2019-05-21T09:36:53.865Z,15.70
2019-05-21T09:39:25.588Z,14.10
2019-05-21T09:41:57.149Z,15.53
2019-05-21T09:44:28.964Z,17.23
2019-05-21T09:47:01.196Z,15.03
2019-05-21T09:49:32.638Z,16.60
2019-05-21T09:52:04.323Z,11.10
2019-05-21T09:54:35.771Z,12.50
2019-05-21T09:57:09.462Z,17.20
2019-05-21T09:59:48.888Z,16.33
2019-05-21T10:02:23.567Z,14.90
2019-05-21T10:04:55.033Z,14.63
2019-05-21T10:07:39.123Z,14.40
2019-05-21T10:10:01.649Z,13.70
2019-05-21T10:12:33.326Z,14.47
2019-05-21T10:15:07.144Z,14.67
2019-05-21T10:17:38.642Z,14.83
2019-05-21T10:20:10.699Z,15.77
2019-05-21T10:22:44.084Z,22.93
2019-05-21T10:25:16.099Z,16.40
2019-05-21T10:27:47.759Z,14.50
2019-05-21T10:30:19.765Z,19.73
2019-05-21T10:32:54.393Z,13.70
2019-05-21T10:35:25.908Z,15.13
2019-05-21T10:37:57.327Z,16.13
2019-05-21T10:40:28.876Z,20.53
2019-05-21T10:43:00.434Z,17.17
2019-05-21T10:45:31.967Z,19.57
2019-05-21T10:48:03.786Z,16.23
2019-05-21T10:50:35.520Z,22.03
2019-05-21T10:53:08.933Z,15.80
2019-05-21T10:55:40.828Z,16.13
2019-05-21T10:58:12.376Z,15.37
2019-05-21T11:00:45.810Z,14.40
2019-05-21T11:03:21.418Z,15.83
2019-05-21T11:06:08.975Z,13.07
2019-05-21T11:08:28.636Z,32.53
2019-05-21T11:11:00.178Z,19.83
2019-05-21T11:13:31.727Z,19.53
2019-05-21T11:16:03.165Z,20.50
2019-05-21T11:18:35.097Z,16.33
2019-05-21T11:21:06.931Z,18.13
2019-05-21T11:23:38.489Z,20.17
2019-05-21T11:26:10.244Z,15.77
2019-05-21T11:28:41.916Z,14.13
2019-05-21T11:31:13.426Z,16.20
2019-05-21T11:33:45.087Z,13.23
2019-05-21T11:36:16.602Z,12.23
2019-05-21T11:38:49.313Z,11.80
2019-05-21T11:41:20.853Z,14.47
2019-05-21T11:43:54.039Z,11.23
2019-05-21T11:46:25.755Z,11.93
2019-05-21T11:48:57.154Z,15.30
2019-05-21T11:51:28.986Z,16.23
2019-05-21T11:54:00.590Z,14.73
2019-05-21T11:56:36.210Z,19.73
2019-05-21T11:59:09.653Z,12.67
2019-05-21T12:01:41.545Z,20.87
2019-05-21T12:04:13.038Z,17.20
2019-05-21T12:06:44.796Z,17.47
2019-05-21T12:09:16.258Z,16.60
2019-05-21T12:11:47.955Z,15.23
2019-05-21T12:14:21.910Z,20.03
2019-05-21T12:16:53.650Z,20.30
2019-05-21T12:19:25.127Z,20.47
2019-05-21T12:21:56.704Z,19.53
2019-05-21T12:24:29.895Z,18.47
2019-05-21T12:27:01.418Z,18.40
2019-05-21T12:29:34.370Z,19.50
2019-05-21T12:32:06.159Z,16.03
2019-05-21T12:34:39.052Z,22.43
2019-05-21T12:37:10.786Z,17.13
2019-05-21T12:39:42.814Z,20.23
2019-05-21T12:42:14.386Z,25.97
2019-05-21T12:44:46.088Z,23.17
2019-05-21T12:47:17.624Z,19.87
2019-05-21T12:49:49.277Z,18.40
2019-05-21T12:52:20.879Z,17.60
2019-05-21T12:54:52.748Z,22.80
2019-05-21T12:57:24.278Z,20.43
2019-05-21T12:59:55.796Z,17.50
2019-05-21T13:02:27.509Z,18.87
2019-05-21T13:04:59.046Z,21.17
2019-05-21T13:07:30.701Z,21.90
2019-05-21T13:10:02.196Z,20.90
2019-05-21T13:12:33.958Z,18.17
2019-05-21T13:15:06.225Z,18.47
2019-05-21T13:17:37.727Z,22.27
2019-05-21T13:20:10.947Z,18.00
2019-05-21T13:22:42.740Z,20.37
2019-05-21T13:25:14.500Z,20.97
2019-05-21T13:27:46.190Z,15.70
2019-05-21T13:30:18.729Z,16.03
2019-05-21T13:32:50.283Z,22.70
2019-05-21T13:35:21.762Z,19.97
2019-05-21T13:37:53.368Z,20.63
2019-05-21T13:40:25.613Z,18.30
2019-05-21T13:42:57.207Z,20.70
2019-05-21T13:45:28.812Z,19.53
2019-05-21T13:48:00.414Z,22.13
2019-05-21T13:50:31.953Z,25.73
2019-05-21T13:53:03.778Z,22.60
2019-05-21T13:55:36.807Z,24.37
2019-05-21T13:58:08.689Z,29.03
2019-05-21T14:00:53.095Z,28.37
2019-05-21T14:03:24.653Z,29.20
2019-05-21T14:05:56.592Z,25.37
2019-05-21T14:08:28.255Z,25.73
2019-05-21T14:11:00.434Z,24.23
2019-05-21T14:13:32.242Z,21.27
2019-05-21T14:16:05.129Z,19.43
2019-05-21T14:18:36.917Z,25.43
2019-05-21T14:21:08.639Z,23.13
2019-05-21T14:23:40.306Z,21.20
2019-05-21T14:26:14.791Z,24.53
2019-05-21T14:28:46.487Z,26.63
2019-05-21T14:31:18.087Z,22.87
2019-05-21T14:33:50.568Z,19.93
2019-05-21T14:36:22.167Z,22.90
2019-05-21T14:38:55.674Z,25.63
2019-05-21T14:41:27.223Z,26.33
2019-05-21T14:43:58.932Z,21.80
2019-05-21T14:46:30.822Z,24.13
2019-05-21T14:49:02.392Z,20.23
2019-05-21T14:51:34.106Z,21.17
2019-05-21T14:54:05.951Z,27.10
2019-05-21T14:56:37.725Z,19.53
2019-05-21T14:59:09.304Z,23.40
2019-05-21T15:01:41.294Z,19.47
2019-05-21T15:04:13.304Z,23.00
2019-05-21T15:06:45.196Z,19.07
2019-05-21T15:09:17.168Z,29.63
2019-05-21T15:11:48.793Z,34.57
2019-05-21T15:14:21.181Z,25.30
2019-05-21T15:16:52.982Z,24.53
2019-05-21T15:19:28.115Z,25.90
2019-05-21T15:21:59.848Z,31.03
2019-05-21T15:24:33.618Z,23.77
2019-05-21T15:27:05.700Z,27.70
2019-05-21T15:29:37.546Z,25.30
2019-05-21T15:32:09.326Z,24.23
2019-05-21T15:34:40.861Z,25.33
2019-05-21T15:37:12.524Z,24.63
2019-05-21T15:39:44.506Z,24.93
2019-05-21T15:42:17.264Z,25.83
2019-05-21T15:44:48.908Z,39.10
2019-05-21T15:47:20.694Z,24.23
2019-05-21T15:49:52.297Z,28.10
2019-05-21T15:52:24.115Z,24.53
2019-05-21T15:54:55.778Z,25.67
2019-05-21T15:57:27.344Z,26.20
2019-05-21T15:59:59.599Z,27.97
2019-05-21T16:02:31.146Z,28.97
2019-05-21T16:05:02.767Z,25.73
2019-05-21T16:07:34.484Z,23.67
2019-05-21T16:10:07.039Z,25.73
2019-05-21T16:12:38.608Z,21.73
2019-05-21T16:15:10.836Z,24.27
2019-05-21T16:17:43.557Z,25.73
2019-05-21T16:20:15.633Z,20.17
2019-05-21T16:22:47.247Z,18.93
2019-05-21T16:25:19.298Z,25.83
2019-05-21T16:27:51.098Z,29.43
2019-05-21T16:30:23.057Z,27.87
2019-05-21T16:32:54.611Z,24.83
2019-05-21T16:35:28.573Z,26.13
2019-05-21T16:38:00.540Z,23.27
2019-05-21T16:40:32.200Z,25.60
2019-05-21T16:43:03.925Z,22.33
2019-05-21T16:45:37.081Z,23.20
2019-05-21T16:48:09.092Z,26.03
2019-05-21T16:50:42.689Z,22.73
2019-05-21T16:53:14.731Z,19.07
2019-05-21T16:55:47.068Z,21.67
2019-05-21T16:58:18.889Z,21.13
2019-05-21T17:00:51.298Z,20.60
2019-05-21T17:03:23.217Z,22.70
2019-05-21T17:05:55.076Z,18.17
2019-05-21T17:08:26.592Z,19.17
2019-05-21T17:10:58.594Z,20.23
2019-05-21T17:13:30.715Z,15.83
2019-05-21T17:16:02.291Z,24.80
2019-05-21T17:18:34.046Z,18.63
2019-05-21T17:21:05.627Z,16.87
2019-05-21T17:23:38.088Z,19.83
2019-05-21T17:26:09.713Z,18.20
2019-05-21T17:28:41.694Z,19.27
2019-05-21T17:31:14.142Z,21.50
2019-05-21T17:33:46.242Z,21.83
2019-05-21T17:36:17.872Z,27.80
2019-05-21T17:38:49.515Z,28.03
2019-05-21T17:41:21.201Z,25.77
2019-05-21T17:43:52.915Z,26.70
2019-05-21T17:46:24.730Z,18.83
2019-05-21T17:48:56.485Z,23.17
2019-05-21T17:51:29.897Z,28.67
2019-05-21T17:54:03.204Z,22.80
2019-05-21T17:56:35.035Z,18.40
2019-05-21T17:59:06.614Z,19.30
2019-05-21T18:01:38.412Z,20.03
2019-05-21T18:04:12.234Z,21.37
2019-05-21T18:06:44.135Z,20.67
2019-05-21T18:09:16.833Z,23.10
2019-05-21T18:11:49.145Z,26.87
2019-05-21T18:14:21.861Z,20.73
2019-05-21T18:16:54.955Z,20.87
2019-05-21T18:19:27.966Z,22.17
2019-05-21T18:22:01.595Z,14.50
2019-05-21T18:24:34.334Z,13.30
2019-05-21T18:27:06.113Z,14.17
2019-05-21T18:29:37.783Z,15.17
2019-05-21T18:32:09.545Z,18.13
2019-05-21T18:34:41.645Z,17.33
2019-05-21T18:37:13.784Z,17.07
2019-05-21T18:39:45.803Z,14.63
2019-05-21T18:42:22.405Z,17.93
2019-05-21T18:44:50.956Z,17.53
2019-05-21T18:47:22.522Z,18.20
2019-05-21T18:49:55.491Z,20.27
2019-05-21T18:52:27.428Z,22.67
2019-05-21T18:55:00.066Z,28.30
2019-05-21T18:57:31.767Z,22.57
2019-05-21T19:00:03.421Z,22.13
2019-05-21T19:02:36.750Z,23.73
2019-05-21T19:05:09.252Z,22.37
2019-05-21T19:07:41.795Z,20.33
2019-05-21T19:10:15.705Z,24.47
2019-05-21T19:12:47.339Z,29.13
2019-05-21T19:15:19.383Z,23.47
2019-05-21T19:17:51.219Z,34.03
2019-05-21T19:20:23.542Z,31.80
2019-05-21T19:22:55.566Z,27.80
2019-05-21T19:25:28.058Z,25.63
2019-05-21T19:27:59.747Z,26.13
2019-05-21T19:30:32.232Z,25.70
2019-05-21T19:33:04.407Z,35.63
2019-05-21T19:35:36.049Z,31.53
2019-05-21T19:38:08.194Z,28.73
2019-05-21T19:40:41.843Z,29.70
2019-05-21T19:43:14.972Z,31.27
2019-05-21T19:45:46.665Z,29.23
2019-05-21T19:48:18.660Z,29.47
2019-05-21T19:50:52.397Z,26.47
2019-05-21T19:53:24.228Z,28.57
2019-05-21T19:55:56.059Z,36.27
2019-05-21T19:58:27.742Z,30.43
2019-05-21T20:00:59.905Z,29.80
2019-05-21T20:03:32.767Z,33.47
2019-05-21T20:06:04.628Z,31.97
2019-05-21T20:08:36.608Z,29.53
2019-05-21T20:11:11.480Z,29.03
2019-05-21T20:13:43.134Z,25.13
2019-05-21T20:16:16.983Z,25.37
2019-05-21T20:18:48.881Z,31.37
2019-05-21T20:21:22.678Z,29.17
2019-05-21T20:23:54.740Z,24.03
2019-05-21T20:26:28.346Z,22.40
2019-05-21T20:29:01.768Z,21.53
2019-05-21T20:31:33.387Z,22.13
2019-05-21T20:34:06.746Z,24.40
2019-05-21T20:36:40.898Z,21.20
2019-05-21T20:39:15.090Z,20.80
2019-05-21T20:41:47.490Z,23.73
2019-05-21T20:44:19.976Z,20.27
2019-05-21T20:46:55.349Z,19.90
2019-05-21T20:49:26.972Z,24.20
2019-05-21T20:51:58.919Z,22.10
2019-05-21T20:54:31.954Z,25.37
2019-05-21T20:57:05.820Z,21.10
2019-05-21T20:59:38.298Z,29.73
2019-05-21T21:02:12.510Z,26.83
2019-05-21T21:04:44.142Z,27.03
2019-05-21T21:07:16.442Z,26.60
2019-05-21T21:09:48.142Z,28.43
2019-05-21T21:12:20.765Z,23.87
2019-05-21T21:14:53.550Z,28.93
2019-05-21T21:17:25.621Z,26.33
2019-05-21T21:19:57.349Z,24.73
2019-05-21T21:22:28.933Z,28.77
2019-05-21T21:25:01.047Z,31.27
2019-05-21T21:27:35.526Z,32.50
2019-05-21T21:30:09.003Z,28.63
2019-05-21T21:32:41.183Z,25.00
2019-05-21T21:35:14.041Z,27.33
2019-05-21T21:37:47.284Z,28.77
2019-05-21T21:40:21.092Z,24.50
2019-05-21T21:42:53.260Z,25.70
2019-05-21T21:45:25.132Z,24.97
2019-05-21T21:47:56.671Z,27.37
2019-05-21T21:50:29.379Z,27.00
2019-05-21T21:53:00.976Z,19.57
2019-05-21T21:55:32.945Z,23.53
2019-05-21T21:58:04.700Z,27.73
2019-05-21T22:01:36.988Z,22.17
2019-05-21T22:04:12.276Z,17.13
2019-05-21T22:06:45.775Z,19.53
2019-05-21T22:09:43.280Z,16.80
2019-05-21T22:12:18.677Z,17.00
2019-05-21T22:15:02.212Z,17.10
2019-05-21T22:17:34.546Z,24.97
2019-05-21T22:20:08.422Z,19.87
2019-05-21T22:22:40.030Z,24.43
2019-05-21T22:25:12.274Z,22.37
2019-05-21T22:27:44.018Z,27.63
2019-05-21T22:30:17.536Z,20.50
2019-05-21T22:32:49.186Z,22.30
2019-05-21T22:35:20.821Z,24.03
2019-05-21T22:37:52.381Z,22.80
2019-05-21T22:40:25.908Z,22.57
2019-05-21T22:42:57.476Z,24.23
2019-05-21T22:45:29.312Z,22.17
2019-05-21T22:48:01.369Z,21.27
2019-05-21T22:50:33.163Z,19.60
2019-05-21T22:53:05.478Z,19.27
2019-05-21T22:55:37.067Z,22.87
2019-05-21T22:58:09.008Z,22.27
2019-05-21T23:00:41.072Z,21.43
2019-05-21T23:03:13.254Z,20.40
2019-05-21T23:05:45.057Z,17.63
2019-05-21T23:08:17.589Z,19.70
2019-05-21T23:10:49.235Z,16.17
2019-05-21T23:13:21.124Z,16.97
2019-05-21T23:15:53.648Z,19.97
2019-05-21T23:18:35.797Z,18.60
2019-05-21T23:21:19.489Z,16.23
2019-05-21T23:23:53.319Z,19.47
2019-05-21T23:26:25.659Z,17.70
2019-05-21T23:28:57.236Z,23.50
2019-05-21T23:31:30.084Z,21.33
2019-05-21T23:34:02.432Z,21.57
2019-05-21T23:36:34.434Z,23.83
2019-05-21T23:39:08.779Z,24.50
2019-05-21T23:41:41.955Z,21.47
2019-05-21T23:44:14.231Z,20.37
2019-05-21T23:46:45.975Z,20.70
2019-05-21T23:49:17.513Z,19.83
2019-05-21T23:51:49.305Z,20.07
2019-05-21T23:54:20.988Z,18.57
2019-05-21T23:56:54.143Z,19.13
2019-05-21T23:59:28.037Z,16.93
